CDG weather

Charles de Gaulle International Airport
Paris, Île-de-France, France

Public forecast

Using degrees Celsius for public forecast. Weather courtesy of forecast.io.

METAR (pilot weather report)

Retrieved 2017/01/20 05:30 UTC (10 minutes ago):

LFPG 200530Z 04008KT 020V100 CAVOK M05/M08 Q1030 NOSIG

TAF (pilot weather forecast)

Forecast is more than 12 hours old.

Retrieved 2017/01/19 00:21 UTC (1 day ago):

TAF LFPG 192300Z 2000/2106 04007KT CAVOK TX01/2014Z TNM06/2007Z